Time;durP1;ratioP1;P1;durP2;ratioP2;P2;SDS_P1;SDS_P2;PMS_P1;PMS_P2;Temp;Humidity;BMP_temperature;BMP_pressure;BME280_temperature;BME280_humidity;BME280_pressure;Samples;Min_cycle;Max_cycle;Signal;HPM_P1;HPM_P2
2021/06/13 00:02:24;;;;;;;;;;;;;;;12.00;70.16;99128.05;1575644;89;20179;-63
2021/06/13 00:04:50;;;;;;;;;;;;;;;12.00;70.03;99135.90;1579193;89;20121;-63
2021/06/13 00:07:16;;;;;;;;;;;;;;;12.00;70.61;99146.36;1577837;89;20152;-63
2021/06/13 00:09:42;;;;;;;;;;;;;;;12.01;70.49;99138.88;1581673;89;20186;-63
2021/06/13 00:12:11;;;;;;;;;;;;;;;12.01;72.17;99148.03;1579817;89;20592;-64
2021/06/13 00:14:37;;;;;;;;;;;;;;;12.00;70.92;99135.90;1578761;89;20225;-64
2021/06/13 00:17:04;;;;;;;;;;;;;;;11.99;70.59;99144.70;1578516;89;20146;-64
2021/06/13 00:19:30;;;;;;;;;;;;;;;11.97;70.95;99155.24;1577104;89;20143;-64
2021/06/13 00:21:56;;;;;;;;;;;;;;;11.97;70.80;99143.94;1577862;89;20127;-63
2021/06/13 00:24:23;;;;;;;;;;;;;;;11.95;70.81;99147.95;1577184;89;21510;-63
2021/06/13 00:26:49;;;;;;;;;;;;;;;11.94;71.52;99148.05;1558808;91;20129;-63
2021/06/13 00:29:15;;;;;;;;;;;;;;;11.94;70.89;99154.13;1552155;91;20147;-63
2021/06/13 00:31:42;;;;;;;;;;;;;;;11.93;71.34;99150.28;1585454;89;20559;-64
2021/06/13 00:34:08;;;;;;;;;;;;;;;11.94;71.64;99146.75;1578272;89;20148;-63
2021/06/13 00:36:35;;;;;;;;;;;;;;;11.93;71.60;99154.20;1579084;89;21999;-64
2021/06/13 00:39:01;;;;;;;;;;;;;;;11.94;71.55;99151.98;1589108;89;20477;-64
2021/06/13 00:41:27;;;;;;;;;;;;;;;11.93;71.69;99145.05;1586562;89;20135;-63
2021/06/13 00:43:53;;;;;;;;;;;;;;;11.89;71.50;99155.34;1578195;89;20133;-63
2021/06/13 00:46:20;;;;;;;;;;;;;;;11.83;72.20;99162.59;1578625;89;20257;-64
2021/06/13 00:48:46;;;;;;;;;;;;;;;11.79;72.33;99166.34;1571434;89;21144;-63
2021/06/13 00:51:13;;;;;;;;;;;;;;;11.76;72.11;99162.61;1563288;90;20216;-63
2021/06/13 00:53:39;;;;;;;;;;;;;;;11.74;71.99;99167.09;1566358;90;20515;-63
2021/06/13 00:56:06;;;;;;;;;;;;;;;11.73;72.30;99160.16;1562967;90;20144;-63
2021/06/13 00:58:32;;;;;;;;;;;;;;;11.73;72.34;99158.02;1568953;90;20186;-63
2021/06/13 01:00:59;;;;;;;;;;;;;;;11.72;72.20;99164.19;1566084;90;21332;-63
2021/06/13 01:03:25;;;;;;;;;;;;;;;11.72;72.08;99166.33;1566288;89;20124;-63
2021/06/13 01:05:51;;;;;;;;;;;;;;;11.71;72.41;99169.89;1569003;90;20221;-63
2021/06/13 01:08:36;;;;;;;;;;;;;;;11.71;72.41;99164.66;1573686;90;21239;-63
2021/06/13 01:11:15;;;;;;;;;;;;;;;11.71;72.55;99175.12;1567086;90;20253;-63
2021/06/13 01:13:50;;;;;;;;;;;;;;;11.72;72.47;99156.34;1568092;90;21308;-64
2021/06/13 01:16:32;;;;;;;;;;;;;;;11.74;73.26;99172.32;1568248;90;20234;-63
2021/06/13 01:19:17;;;;;;;;;;;;;;;11.73;73.30;99165.39;1569444;90;20180;-63
2021/06/13 01:22:07;;;;;;;;;;;;;;;11.73;73.28;99180.25;1570804;90;20237;-63
2021/06/13 01:24:46;;;;;;;;;;;;;;;11.73;72.94;99169.31;1567738;90;20821;-63
2021/06/13 01:27:25;;;;;;;;;;;;;;;11.74;72.86;99168.39;1569213;90;21128;-64
2021/06/13 01:29:52;;;;;;;;;;;;;;;11.74;72.89;99167.09;1566903;90;20211;-63
2021/06/13 01:32:22;;;;;;;;;;;;;;;11.75;72.80;99170.06;1569918;90;20160;-63
2021/06/13 01:34:52;;;;;;;;;;;;;;;11.76;73.54;99171.77;1574171;89;20234;-63
2021/06/13 01:37:25;;;;;;;;;;;;;;;11.75;73.98;99175.30;1566086;90;20190;-64
2021/06/13 01:39:53;;;;;;;;;;;;;;;11.74;73.61;99177.55;1567603;90;21128;-63
2021/06/13 01:42:20;;;;;;;;;;;;;;;11.75;73.43;99179.69;1566416;90;20602;-63
2021/06/13 01:44:49;;;;;;;;;;;;;;;11.74;73.56;99181.47;1568788;90;20458;-64
2021/06/13 01:47:15;;;;;;;;;;;;;;;11.74;73.52;99182.78;1573342;89;20206;-63
2021/06/13 01:49:42;;;;;;;;;;;;;;;11.73;73.60;99169.31;1579997;89;20101;-63
2021/06/13 01:52:10;;;;;;;;;;;;;;;11.74;73.63;99181.47;1579898;89;21315;-63
2021/06/13 01:54:37;;;;;;;;;;;;;;;11.73;73.51;99171.92;1582411;89;20162;-63
2021/06/13 01:57:05;;;;;;;;;;;;;;;11.76;73.51;99183.54;1580525;89;20166;-63
2021/06/13 01:59:32;;;;;;;;;;;;;;;11.78;74.06;99179.03;1583417;89;20335;-63
2021/06/13 02:01:59;;;;;;;;;;;;;;;11.76;74.85;99190.08;1579834;89;20157;-63
2021/06/13 02:04:27;;;;;;;;;;;;;;;11.76;74.20;99191.38;1581525;89;21072;-64
2021/06/13 02:06:57;;;;;;;;;;;;;;;11.76;74.11;99191.38;1582634;89;20146;-64
2021/06/13 02:09:24;;;;;;;;;;;;;;;11.77;73.88;99193.05;1552866;89;20219;-63
2021/06/13 02:11:51;;;;;;;;;;;;;;;11.78;74.20;99201.73;1582734;89;21730;-63
2021/06/13 02:14:19;;;;;;;;;;;;;;;11.80;74.32;99196.79;1590060;89;20154;-64
2021/06/13 02:16:46;;;;;;;;;;;;;;;11.81;73.80;99199.77;1580513;89;21616;-63
2021/06/13 02:19:13;;;;;;;;;;;;;;;11.83;74.16;99197.91;1581050;89;20139;-63
2021/06/13 02:21:43;;;;;;;;;;;;;;;11.81;74.24;99205.00;1580966;89;20113;-63
2021/06/13 02:24:10;;;;;;;;;;;;;;;11.82;73.95;99201.47;1578886;89;20366;-63
2021/06/13 02:26:38;;;;;;;;;;;;;;;11.85;73.95;99203.93;1582992;89;20298;-63
2021/06/13 02:29:05;;;;;;;;;;;;;;;11.85;73.97;99201.31;1579026;89;21080;-63
2021/06/13 02:31:32;;;;;;;;;;;;;;;11.88;73.95;99204.69;1585111;89;20202;-64
2021/06/13 02:34:01;;;;;;;;;;;;;;;11.88;73.91;99204.69;1582823;89;20199;-63
2021/06/13 02:36:29;;;;;;;;;;;;;;;11.88;74.06;99208.14;1579201;88;20232;-63
2021/06/13 02:38:55;;;;;;;;;;;;;;;11.90;73.90;99211.95;1584239;89;20210;-63
2021/06/13 02:41:22;;;;;;;;;;;;;;;11.91;74.04;99208.42;1578436;89;21114;-63
2021/06/13 02:43:48;;;;;;;;;;;;;;;11.94;74.06;99208.23;1558557;89;20158;-63
2021/06/13 02:46:15;;;;;;;;;;;;;;;11.95;74.17;99213.83;1578321;89;20106;-64
2021/06/13 02:48:42;;;;;;;;;;;;;;;11.96;74.31;99210.27;1582942;89;20118;-64
2021/06/13 02:51:09;;;;;;;;;;;;;;;11.98;74.47;99218.87;1586998;89;20606;-63
2021/06/13 02:53:43;;;;;;;;;;;;;;;12.01;74.14;99223.91;1583779;89;21253;-63
2021/06/13 02:56:28;;;;;;;;;;;;;;;12.04;74.31;99232.88;1583607;89;20131;-63
2021/06/13 02:59:01;;;;;;;;;;;;;;;12.02;74.05;99225.61;1581645;89;20453;-63
2021/06/13 03:01:28;;;;;;;;;;;;;;;12.01;74.51;99226.53;1585379;89;20135;-63
2021/06/13 03:03:56;;;;;;;;;;;;;;;11.99;74.14;99233.66;1583648;89;20226;-63
2021/06/13 03:06:24;;;;;;;;;;;;;;;12.01;74.34;99234.38;1580485;89;21483;-63
2021/06/13 03:08:51;;;;;;;;;;;;;;;12.00;74.52;99248.41;1579296;89;20416;-64
2021/06/13 03:11:18;;;;;;;;;;;;;;;12.00;74.27;99240.55;1581738;89;20432;-63
2021/06/13 03:13:47;;;;;;;;;;;;;;;12.03;74.38;99256.06;1577445;89;20216;-63
2021/06/13 03:16:15;;;;;;;;;;;;;;;12.02;74.46;99257.02;1576803;89;20201;-64
2021/06/13 03:18:43;;;;;;;;;;;;;;;12.01;74.24;99260.55;1577654;89;22472;-64
2021/06/13 03:21:11;;;;;;;;;;;;;;;12.05;74.38;99262.05;1580588;89;20126;-63
2021/06/13 03:23:38;;;;;;;;;;;;;;;12.07;74.19;99266.70;1583872;89;20144;-63
2021/06/13 03:26:05;;;;;;;;;;;;;;;12.09;74.40;99268.77;1581249;89;20543;-63
2021/06/13 03:28:33;;;;;;;;;;;;;;;12.08;74.31;99280.19;1585581;89;20461;-63
2021/06/13 03:31:01;;;;;;;;;;;;;;;12.08;74.58;99276.26;1585209;89;22393;-63
2021/06/13 03:33:28;;;;;;;;;;;;;;;12.13;74.44;99270.28;1584250;89;20152;-63
2021/06/13 03:35:56;;;;;;;;;;;;;;;12.19;74.29;99276.45;1582368;89;20166;-63
2021/06/13 03:38:24;;;;;;;;;;;;;;;12.25;74.26;99279.99;1582984;89;20177;-64
2021/06/13 03:40:50;;;;;;;;;;;;;;;12.25;74.23;99285.23;1582319;89;20147;-63
2021/06/13 03:43:19;;;;;;;;;;;;;;;12.24;74.24;99285.34;1560825;89;22082;-64
2021/06/13 03:45:46;;;;;;;;;;;;;;;12.23;74.21;99281.85;1586803;89;20171;-64
2021/06/13 03:48:13;;;;;;;;;;;;;;;12.21;74.32;99288.98;1577445;89;20146;-63
2021/06/13 03:50:42;;;;;;;;;;;;;;;12.19;74.30;99293.46;1586278;89;20138;-64
2021/06/13 03:53:08;;;;;;;;;;;;;;;12.16;74.21;99288.41;1583530;89;20237;-64
2021/06/13 03:55:35;;;;;;;;;;;;;;;12.17;74.32;99304.48;1586479;89;21208;-63
2021/06/13 03:58:01;;;;;;;;;;;;;;;12.20;74.42;99304.30;1586600;89;20139;-64
2021/06/13 04:00:31;;;;;;;;;;;;;;;12.22;74.64;99308.14;1584305;88;20136;-63
2021/06/13 04:02:58;;;;;;;;;;;;;;;12.26;74.43;99310.45;1583952;88;20511;-64
2021/06/13 04:05:25;;;;;;;;;;;;;;;12.31;74.32;99311.02;1583830;89;21441;-63
2021/06/13 04:07:51;;;;;;;;;;;;;;;12.44;74.38;99322.08;1581298;89;21485;-63
2021/06/13 04:10:18;;;;;;;;;;;;;;;12.43;74.32;99319.06;1589193;89;20131;-63
2021/06/13 04:12:46;;;;;;;;;;;;;;;12.47;74.34;99316.65;1583246;89;20143;-64
2021/06/13 04:15:14;;;;;;;;;;;;;;;12.58;74.37;99326.00;1585418;89;20189;-63
2021/06/13 04:17:41;;;;;;;;;;;;;;;12.70;74.26;99323.08;1586993;89;20166;-64
2021/06/13 04:20:10;;;;;;;;;;;;;;;12.80;74.22;99323.33;1587664;89;21426;-63
2021/06/13 04:22:38;;;;;;;;;;;;;;;12.88;74.04;99328.48;1584794;89;20162;-63
2021/06/13 04:25:06;;;;;;;;;;;;;;;12.95;73.92;99338.10;1586140;89;20137;-64
2021/06/13 04:27:34;;;;;;;;;;;;;;;12.98;73.94;99335.28;1585686;89;20122;-64
2021/06/13 04:30:01;;;;;;;;;;;;;;;13.10;73.86;99332.34;1587596;88;20138;-64
2021/06/13 04:32:28;;;;;;;;;;;;;;;13.04;73.50;99341.44;1587981;89;20688;-63
2021/06/13 04:34:54;;;;;;;;;;;;;;;12.99;73.67;99343.50;1581371;89;20112;-64
2021/06/13 04:37:20;;;;;;;;;;;;;;;13.07;73.67;99347.80;1589847;89;20177;-64
2021/06/13 04:39:47;;;;;;;;;;;;;;;13.05;73.55;99340.52;1588136;89;20094;-63
2021/06/13 04:42:13;;;;;;;;;;;;;;;13.05;73.54;99349.70;1585008;89;20174;-63
2021/06/13 04:44:39;;;;;;;;;;;;;;;13.03;73.58;99358.11;1554685;89;22312;-63
2021/06/13 04:47:06;;;;;;;;;;;;;;;12.99;73.51;99360.54;1583299;89;20976;-63
2021/06/13 04:49:33;;;;;;;;;;;;;;;13.01;73.63;99365.23;1580610;89;20216;-63
2021/06/13 04:52:00;;;;;;;;;;;;;;;13.04;73.59;99362.88;1576677;89;20231;-64
2021/06/13 04:54:33;;;;;;;;;;;;;;;13.03;73.60;99372.53;1581254;89;20111;-63
2021/06/13 04:57:12;;;;;;;;;;;;;;;12.99;73.41;99370.58;1576704;89;21962;-64
2021/06/13 04:59:38;;;;;;;;;;;;;;;12.95;73.52;99373.48;1576868;89;20121;-63
2021/06/13 05:02:04;;;;;;;;;;;;;;;12.99;73.66;99380.20;1582608;89;20213;-63
2021/06/13 05:04:31;;;;;;;;;;;;;;;13.06;73.48;99376.27;1586874;89;20154;-63
2021/06/13 05:06:57;;;;;;;;;;;;;;;13.08;73.41;99382.26;1583042;88;20129;-63
2021/06/13 05:09:23;;;;;;;;;;;;;;;13.15;73.42;99387.95;1585526;89;21989;-63
2021/06/13 05:11:50;;;;;;;;;;;;;;;13.12;73.17;99382.90;1582723;89;20509;-63
2021/06/13 05:14:16;;;;;;;;;;;;;;;13.10;73.22;99388.23;1581075;89;20114;-63
2021/06/13 05:16:42;;;;;;;;;;;;;;;13.19;73.47;99390.29;1579700;89;20103;-63
2021/06/13 05:19:09;;;;;;;;;;;;;;;13.21;73.09;99400.19;1580516;89;20188;-63
2021/06/13 05:21:36;;;;;;;;;;;;;;;13.21;73.19;99400.19;1578629;89;21052;-63
2021/06/13 05:24:02;;;;;;;;;;;;;;;13.25;72.99;99396.05;1578213;89;20143;-63
2021/06/13 05:26:29;;;;;;;;;;;;;;;13.34;73.28;99400.77;1579988;89;20157;-63
2021/06/13 05:28:56;;;;;;;;;;;;;;;13.42;73.08;99406.37;1578857;89;20182;-64
2021/06/13 05:31:23;;;;;;;;;;;;;;;13.40;72.73;99406.45;1580381;89;20194;-63
2021/06/13 05:33:50;;;;;;;;;;;;;;;13.47;72.96;99404.30;1581674;89;22164;-63
2021/06/13 05:36:16;;;;;;;;;;;;;;;13.58;72.92;99411.45;1583747;89;20468;-64
2021/06/13 05:38:44;;;;;;;;;;;;;;;13.58;72.22;99407.07;1574300;89;20191;-63
2021/06/13 05:41:12;;;;;;;;;;;;;;;13.48;72.37;99417.77;1581468;89;21000;-63
2021/06/13 05:43:39;;;;;;;;;;;;;;;13.50;72.44;99426.84;1579001;89;20197;-63
2021/06/13 05:46:05;;;;;;;;;;;;;;;13.46;72.60;99420.13;1582099;89;21400;-64
2021/06/13 05:48:32;;;;;;;;;;;;;;;13.62;72.65;99436.09;1580789;89;20112;-64
2021/06/13 05:51:01;;;;;;;;;;;;;;;13.71;72.67;99432.50;1584550;89;20497;-63
2021/06/13 05:53:27;;;;;;;;;;;;;;;13.81;72.25;99423.09;1584537;89;20142;-64
2021/06/13 05:55:54;;;;;;;;;;;;;;;13.98;72.19;99432.02;1583361;89;20188;-63
2021/06/13 05:58:20;;;;;;;;;;;;;;;13.89;71.57;99428.66;1580356;89;21538;-63
2021/06/13 06:00:47;;;;;;;;;;;;;;;13.98;71.70;99430.70;1584971;88;20162;-64
2021/06/13 06:03:14;;;;;;;;;;;;;;;13.94;71.20;99440.17;1580149;89;20249;-63
2021/06/13 06:05:40;;;;;;;;;;;;;;;13.88;71.48;99445.36;1581959;89;20154;-63
2021/06/13 06:08:07;;;;;;;;;;;;;;;13.97;71.28;99455.72;1582927;88;20209;-63
2021/06/13 06:10:34;;;;;;;;;;;;;;;13.98;70.70;99459.58;1579034;89;22391;-63
2021/06/13 06:13:04;;;;;;;;;;;;;;;13.92;71.30;99467.86;1591599;89;20163;-64
2021/06/13 06:15:35;;;;;;;;;;;;;;;13.90;71.19;99469.73;1579605;89;20194;-64
2021/06/13 06:18:01;;;;;;;;;;;;;;;13.97;71.53;99484.13;1578706;89;20563;-63
2021/06/13 06:20:29;;;;;;;;;;;;;;;13.96;70.89;99479.83;1576040;89;20177;-64
2021/06/13 06:22:56;;;;;;;;;;;;;;;14.02;71.26;99472.85;1577870;89;21137;-64
2021/06/13 06:25:22;;;;;;;;;;;;;;;14.20;71.34;99476.52;1583927;89;20130;-64
2021/06/13 06:27:50;;;;;;;;;;;;;;;14.36;71.08;99482.44;1585111;89;20135;-64
2021/06/13 06:30:18;;;;;;;;;;;;;;;14.51;69.65;99485.38;1573756;89;20111;-63
2021/06/13 06:32:44;;;;;;;;;;;;;;;14.49;69.86;99490.36;1578324;89;20142;-64
2021/06/13 06:35:12;;;;;;;;;;;;;;;14.49;70.29;99485.94;1575250;89;22335;-64
2021/06/13 06:37:39;;;;;;;;;;;;;;;14.68;70.44;99490.00;1579975;89;20183;-64
2021/06/13 06:40:07;;;;;;;;;;;;;;;14.89;69.30;99494.24;1579758;89;20174;-63
2021/06/13 06:42:33;;;;;;;;;;;;;;;14.99;70.22;99496.14;1579148;89;20141;-63
2021/06/13 06:45:00;;;;;;;;;;;;;;;15.12;69.55;99504.48;1576937;89;20098;-63
2021/06/13 06:47:26;;;;;;;;;;;;;;;15.05;69.34;99505.87;1580800;89;21594;-64
2021/06/13 06:49:52;;;;;;;;;;;;;;;14.99;69.53;99515.86;1581208;89;20782;-64
2021/06/13 06:52:19;;;;;;;;;;;;;;;15.06;69.21;99518.89;1580731;89;20141;-64
2021/06/13 06:54:45;;;;;;;;;;;;;;;14.95;68.34;99519.63;1584422;89;20364;-64
2021/06/13 06:57:12;;;;;;;;;;;;;;;15.02;68.44;99527.95;1582870;89;20162;-64
2021/06/13 06:59:38;;;;;;;;;;;;;;;14.88;68.51;99536.78;1581201;89;21017;-63
2021/06/13 07:02:05;;;;;;;;;;;;;;;14.75;68.89;99546.44;1582219;89;20205;-65
2021/06/13 07:04:31;;;;;;;;;;;;;;;14.85;68.83;99539.62;1576860;89;20146;-63
2021/06/13 07:06:57;;;;;;;;;;;;;;;15.10;69.11;99538.79;1577053;89;20162;-63
2021/06/13 07:09:23;;;;;;;;;;;;;;;15.02;67.63;99545.52;1577482;89;20170;-62
2021/06/13 07:11:50;;;;;;;;;;;;;;;14.94;68.60;99546.88;1581128;89;21725;-63
2021/06/13 07:14:16;;;;;;;;;;;;;;;14.98;68.18;99549.68;1574679;89;20122;-63
2021/06/13 07:16:42;;;;;;;;;;;;;;;15.04;68.48;99554.13;1576053;89;20221;-64
2021/06/13 07:19:09;;;;;;;;;;;;;;;15.11;67.67;99561.50;1576524;89;20182;-63
2021/06/13 07:21:35;;;;;;;;;;;;;;;15.18;68.63;99561.94;1576922;89;20166;-64
2021/06/13 07:24:02;;;;;;;;;;;;;;;15.33;68.03;99579.27;1577908;89;22364;-64
2021/06/13 07:26:28;;;;;;;;;;;;;;;15.11;67.68;99576.44;1583152;89;20169;-63
2021/06/13 07:28:55;;;;;;;;;;;;;;;15.00;67.68;99580.63;1575509;89;20158;-64
2021/06/13 07:31:21;;;;;;;;;;;;;;;15.17;68.66;99583.91;1580735;89;20230;-64
2021/06/13 07:33:47;;;;;;;;;;;;;;;15.41;68.23;99579.59;1579113;89;20531;-64
2021/06/13 07:36:14;;;;;;;;;;;;;;;15.35;67.48;99587.91;1577392;89;21113;-63
2021/06/13 07:38:40;;;;;;;;;;;;;;;15.21;66.81;99593.28;1575412;89;20102;-63
2021/06/13 07:41:06;;;;;;;;;;;;;;;15.21;67.21;99601.17;1577284;89;20185;-63
2021/06/13 07:43:33;;;;;;;;;;;;;;;15.20;67.43;99606.05;1577769;89;20226;-63
2021/06/13 07:45:59;;;;;;;;;;;;;;;15.04;67.47;99603.64;1575697;89;20442;-62
2021/06/13 07:48:25;;;;;;;;;;;;;;;15.02;67.33;99607.31;1578299;88;21173;-62
2021/06/13 07:50:52;;;;;;;;;;;;;;;14.82;66.76;99626.57;1567421;89;20500;-62
2021/06/13 07:53:18;;;;;;;;;;;;;;;14.71;67.25;99622.50;1567603;90;20141;-63
2021/06/13 07:55:44;;;;;;;;;;;;;;;14.72;67.22;99622.86;1565956;90;20149;-63
2021/06/13 07:58:11;;;;;;;;;;;;;;;14.54;67.30;99631.01;1566991;89;20248;-63
2021/06/13 08:00:39;;;;;;;;;;;;;;;14.58;67.44;99638.21;1565746;89;22033;-63
2021/06/13 08:03:06;;;;;;;;;;;;;;;14.52;67.16;99632.88;1566191;90;20169;-63
2021/06/13 08:05:34;;;;;;;;;;;;;;;14.53;67.28;99638.50;1567109;90;20202;-63
2021/06/13 08:08:05;;;;;;;;;;;;;;;14.66;67.01;99631.15;1596624;88;20151;-63
2021/06/13 08:10:31;;;;;;;;;;;;;;;14.70;66.44;99626.05;1594471;88;20205;-63
2021/06/13 08:12:57;;;;;;;;;;;;;;;14.89;66.60;99630.45;1594628;88;21310;-63
2021/06/13 08:15:24;;;;;;;;;;;;;;;15.15;67.37;99630.50;1594108;88;20156;-64
2021/06/13 08:17:51;;;;;;;;;;;;;;;15.31;66.89;99628.52;1593295;88;20100;-63
2021/06/13 08:20:18;;;;;;;;;;;;;;;15.38;66.87;99638.16;1594471;88;20739;-63
2021/06/13 08:22:44;;;;;;;;;;;;;;;15.29;66.61;99644.03;1593794;88;20248;-66
2021/06/13 08:25:13;;;;;;;;;;;;;;;15.39;66.51;99642.47;1594761;88;21145;-65
2021/06/13 08:27:40;;;;;;;;;;;;;;;15.50;66.21;99645.68;1592217;88;20199;-65
2021/06/13 08:30:09;;;;;;;;;;;;;;;15.45;65.71;99641.56;1595050;88;20129;-65
2021/06/13 08:32:36;;;;;;;;;;;;;;;15.59;64.91;99656.88;1594942;88;20116;-65
2021/06/13 08:35:03;;;;;;;;;;;;;;;15.74;65.73;99654.55;1595389;88;20135;-64
2021/06/13 08:37:29;;;;;;;;;;;;;;;15.84;65.29;99663.47;1566544;90;21116;-64
2021/06/13 08:39:56;;;;;;;;;;;;;;;15.80;65.40;99665.96;1595258;88;20116;-65
2021/06/13 08:42:22;;;;;;;;;;;;;;;15.81;65.27;99661.05;1596376;88;20709;-65
2021/06/13 08:44:49;;;;;;;;;;;;;;;15.63;64.33;99678.11;1596533;88;20205;-65
2021/06/13 08:47:18;;;;;;;;;;;;;;;15.48;64.44;99680.45;1596341;88;20112;-65
2021/06/13 08:49:45;;;;;;;;;;;;;;;15.44;64.93;99679.35;1573272;89;21100;-65
2021/06/13 08:52:12;;;;;;;;;;;;;;;15.96;65.95;99666.19;1556948;91;20157;-65
2021/06/13 08:54:39;;;;;;;;;;;;;;;16.62;65.48;99667.58;1550446;91;20170;-65
2021/06/13 08:57:07;;;;;;;;;;;;;;;17.23;65.30;99664.84;1549478;91;20141;-65
2021/06/13 08:59:33;;;;;;;;;;;;;;;17.19;63.39;99668.66;1551185;91;20710;-65
2021/06/13 09:02:00;;;;;;;;;;;;;;;17.02;62.30;99677.83;1577391;89;21573;-64
2021/06/13 09:04:27;;;;;;;;;;;;;;;16.74;62.49;99682.48;1559119;89;20162;-65
2021/06/13 09:06:53;;;;;;;;;;;;;;;16.66;63.27;99688.78;1575519;89;20213;-64
2021/06/13 09:09:22;;;;;;;;;;;;;;;16.39;61.72;99694.77;1576152;89;20388;-64
2021/06/13 09:12:00;;;;;;;;;;;;;;;15.95;61.19;99694.31;1575014;89;20200;-65
2021/06/13 09:14:27;;;;;;;;;;;;;;;15.76;62.40;99697.38;1575434;89;22014;-65
2021/06/13 09:16:54;;;;;;;;;;;;;;;15.93;63.28;99705.91;1575512;89;20478;-65
2021/06/13 09:19:21;;;;;;;;;;;;;;;15.98;62.78;99692.78;1576925;89;20511;-65
2021/06/13 09:21:48;;;;;;;;;;;;;;;16.30;63.21;99702.38;1574581;89;20655;-64
2021/06/13 09:24:25;;;;;;;;;;;;;;;16.50;62.66;99705.38;1576668;89;20472;-65
2021/06/13 09:26:55;;;;;;;;;;;;;;;16.68;62.43;99717.20;1576554;89;21032;-66
2021/06/13 09:29:22;;;;;;;;;;;;;;;16.57;61.61;99726.37;1575212;89;20160;-65
2021/06/13 09:32:08;;;;;;;;;;;;;;;16.57;60.18;99727.69;1571087;90;20211;-64
2021/06/13 09:34:34;;;;;;;;;;;;;;;16.43;61.73;99731.31;1553171;91;21199;-64
2021/06/13 09:37:05;;;;;;;;;;;;;;;16.29;60.74;99732.29;1559875;89;36097;-64
2021/06/13 09:39:32;;;;;;;;;;;;;;;16.18;61.92;99737.47;1578889;89;21092;-64
2021/06/13 09:42:11;;;;;;;;;;;;;;;16.30;61.75;99739.26;1550255;91;20147;-64
2021/06/13 09:44:36;;;;;;;;;;;;;;;16.33;62.19;99744.31;1579763;89;20531;-65
2021/06/13 09:47:03;;;;;;;;;;;;;;;16.57;62.16;99746.14;1585108;89;20350;-65
2021/06/13 09:49:45;;;;;;;;;;;;;;;16.73;62.07;99748.52;1584810;89;20136;-65
2021/06/13 09:52:11;;;;;;;;;;;;;;;16.92;62.00;99750.70;1578070;89;22051;-65
2021/06/13 09:54:37;;;;;;;;;;;;;;;16.70;60.12;99754.85;1579420;89;20146;-65
2021/06/13 09:57:06;;;;;;;;;;;;;;;16.80;60.99;99752.89;1576651;89;20205;-65
2021/06/13 09:59:33;;;;;;;;;;;;;;;16.94;60.81;99748.77;1548026;91;21723;-65
2021/06/13 10:02:02;;;;;;;;;;;;;;;16.88;61.48;99762.41;1553891;89;20165;-65
2021/06/13 10:04:33;;;;;;;;;;;;;;;16.56;60.53;99765.55;1548744;91;21211;-64
2021/06/13 10:07:03;;;;;;;;;;;;;;;16.30;60.77;99766.92;1573908;89;20452;-65
2021/06/13 10:09:38;;;;;;;;;;;;;;;16.22;60.93;99770.56;1572031;89;20460;-65
2021/06/13 10:12:06;;;;;;;;;;;;;;;16.10;61.40;99774.91;1579543;89;20738;-65
2021/06/13 10:14:33;;;;;;;;;;;;;;;16.60;60.38;99764.36;1577197;89;20134;-64
2021/06/13 10:16:59;;;;;;;;;;;;;;;16.91;59.34;99780.64;1576546;89;21202;-65
2021/06/13 10:19:28;;;;;;;;;;;;;;;16.98;60.85;99776.62;1575082;89;20127;-64
2021/06/13 10:22:01;;;;;;;;;;;;;;;16.71;59.02;99777.62;1574675;89;20181;-65
2021/06/13 10:24:30;;;;;;;;;;;;;;;16.54;60.28;99780.63;1578723;89;20146;-65
2021/06/13 10:26:59;;;;;;;;;;;;;;;16.72;59.53;99783.28;1585596;89;20087;-65
2021/06/13 10:29:28;;;;;;;;;;;;;;;16.81;59.16;99787.55;1577758;89;21965;-65
2021/06/13 10:31:56;;;;;;;;;;;;;;;16.40;59.29;99788.66;1580397;89;20106;-65
2021/06/13 10:34:25;;;;;;;;;;;;;;;16.29;60.26;99799.47;1552166;91;20171;-65
2021/06/13 10:36:53;;;;;;;;;;;;;;;16.26;59.88;99805.44;1576057;90;20459;-65
2021/06/13 10:39:21;;;;;;;;;;;;;;;16.61;60.74;99799.02;1575421;90;20159;-65
2021/06/13 10:41:50;;;;;;;;;;;;;;;17.26;60.83;99797.03;1576173;90;21190;-65
2021/06/13 10:44:18;;;;;;;;;;;;;;;17.63;60.22;99805.67;1563460;91;20266;-64
2021/06/13 10:46:48;;;;;;;;;;;;;;;17.67;59.20;99804.02;1552944;91;20120;-64
2021/06/13 10:49:33;;;;;;;;;;;;;;;17.65;59.41;99805.92;1574053;89;20118;-65
2021/06/13 10:52:12;;;;;;;;;;;;;;;17.81;59.08;99810.06;1568791;89;20265;-64
2021/06/13 10:54:52;;;;;;;;;;;;;;;17.85;58.57;99820.29;1535557;91;21599;-66
2021/06/13 10:57:24;;;;;;;;;;;;;;;17.40;57.79;99814.83;1544200;91;20242;-65
2021/06/13 10:59:54;;;;;;;;;;;;;;;17.52;59.09;99823.63;1559129;90;20242;-66
2021/06/13 11:02:24;;;;;;;;;;;;;;;17.54;58.65;99826.17;1547464;91;20151;-64
2021/06/13 11:04:55;;;;;;;;;;;;;;;17.17;58.69;99821.81;1550021;91;20202;-64
2021/06/13 11:07:35;;;;;;;;;;;;;;;17.10;59.09;99833.75;1567569;90;21844;-64
2021/06/13 11:12:52;;;;;;;;;;;;;;;16.99;58.39;99856.11;1562216;90;20128;-65
2021/06/13 11:15:40;;;;;;;;;;;;;;;17.42;58.51;99827.90;1558850;89;20146;-65
2021/06/13 11:18:16;;;;;;;;;;;;;;;17.78;58.47;99852.52;1563367;91;20168;-65
2021/06/13 11:20:52;;;;;;;;;;;;;;;18.03;58.49;99843.13;1571609;90;21590;-65
2021/06/13 11:23:25;;;;;;;;;;;;;;;17.98;57.46;99841.34;1567854;90;20159;-63
2021/06/13 11:25:54;;;;;;;;;;;;;;;18.09;57.16;99844.01;1567943;90;20150;-65
2021/06/13 11:28:23;;;;;;;;;;;;;;;17.90;57.21;99854.29;1563403;90;20211;-65
2021/06/13 11:30:56;;;;;;;;;;;;;;;18.06;57.35;99853.49;1564740;90;20247;-65
2021/06/13 11:33:43;;;;;;;;;;;;;;;18.32;56.96;99859.89;1568533;90;21135;-65
2021/06/13 11:36:22;;;;;;;;;;;;;;;18.43;58.11;99854.62;1565633;90;20222;-65
2021/06/13 11:38:54;;;;;;;;;;;;;;;18.35;55.78;99872.88;1565491;90;20496;-66
2021/06/13 11:41:36;;;;;;;;;;;;;;;18.25;56.79;99863.95;1570281;90;20417;-67
2021/06/13 11:44:05;;;;;;;;;;;;;;;18.10;56.80;99874.74;1565622;90;20119;-67
2021/06/13 11:46:38;;;;;;;;;;;;;;;18.28;57.56;99869.00;1567060;90;21097;-67
2021/06/13 11:49:07;;;;;;;;;;;;;;;18.86;57.12;99861.84;1566508;90;20480;-65
2021/06/13 11:51:55;;;;;;;;;;;;;;;19.03;56.51;99875.05;1566795;89;20545;-66
2021/06/13 11:54:38;;;;;;;;;;;;;;;19.00;55.50;99872.16;1557301;90;20265;-66
2021/06/13 11:57:07;;;;;;;;;;;;;;;18.80;54.99;99878.20;1559486;90;20244;-67
2021/06/13 11:59:33;;;;;;;;;;;;;;;18.37;53.81;99892.08;1559159;90;21098;-67
2021/06/13 12:02:04;;;;;;;;;;;;;;;17.79;54.43;99882.82;1557134;90;20457;-66
2021/06/13 12:04:30;;;;;;;;;;;;;;;17.58;55.00;99889.17;1542094;90;20220;-67
2021/06/13 12:06:57;;;;;;;;;;;;;;;18.00;56.20;99892.23;1558791;90;20291;-66
2021/06/13 12:09:25;;;;;;;;;;;;;;;18.23;54.39;99899.77;1560809;90;20163;-65
2021/06/13 12:11:56;;;;;;;;;;;;;;;18.32;54.55;99902.19;1559127;90;21088;-66
2021/06/13 12:14:28;;;;;;;;;;;;;;;18.45;55.47;99898.94;1560278;90;20230;-65
2021/06/13 12:17:00;;;;;;;;;;;;;;;18.60;55.26;99918.09;1559745;90;20158;-66
2021/06/13 12:19:38;;;;;;;;;;;;;;;18.36;53.73;99916.84;1559584;90;20167;-66
2021/06/13 12:27:48;;;;;;;;;;;;;;;18.16;52.51;99929.41;1561623;90;20171;-66
2021/06/13 12:30:19;;;;;;;;;;;;;;;17.41;52.67;99931.80;1592245;88;20156;-66
2021/06/13 12:33:05;;;;;;;;;;;;;;;17.37;54.26;99929.03;1588762;88;20326;-66
2021/06/13 12:35:39;;;;;;;;;;;;;;;17.53;54.59;99941.49;1591258;88;20112;-67
2021/06/13 12:38:11;;;;;;;;;;;;;;;17.81;54.72;99939.48;1591677;88;21482;-65
2021/06/13 12:40:40;;;;;;;;;;;;;;;18.02;54.65;99937.89;1591680;88;20188;-67
2021/06/13 12:43:08;;;;;;;;;;;;;;;18.17;54.25;99933.25;1589645;88;20187;-66
2021/06/13 12:45:36;;;;;;;;;;;;;;;17.93;53.41;99939.91;1590902;88;20231;-65
2021/06/13 12:48:06;;;;;;;;;;;;;;;17.53;53.53;99945.91;1588301;88;20127;-66
2021/06/13 12:50:41;;;;;;;;;;;;;;;17.45;54.25;99943.84;1590538;88;20766;-65
2021/06/13 12:53:12;;;;;;;;;;;;;;;17.49;53.90;99947.93;1584103;88;20206;-66
2021/06/13 12:55:42;;;;;;;;;;;;;;;17.32;54.26;99945.67;1583824;89;20139;-64
2021/06/13 12:58:11;;;;;;;;;;;;;;;17.50;54.02;99944.33;1549328;91;20140;-66
2021/06/13 13:00:38;;;;;;;;;;;;;;;17.77;53.49;99952.04;1578033;90;20566;-66
2021/06/13 13:03:09;;;;;;;;;;;;;;;18.05;53.45;99948.23;1582498;89;22060;-66
2021/06/13 13:05:37;;;;;;;;;;;;;;;17.97;52.36;99953.23;1578683;89;20205;-66